sensor_id;sensor_type;location;lat;lon;timestamp;temperature;humidity
35381;DHT22;21486;51.916;8.378;2024-03-08T00:01:53;3.10;99.90
35381;DHT22;21486;51.916;8.378;2024-03-08T00:04:18;3.10;99.90
35381;DHT22;21486;51.916;8.378;2024-03-08T00:06:44;3.10;99.90
35381;DHT22;21486;51.916;8.378;2024-03-08T00:09:11;3.00;99.90
35381;DHT22;21486;51.916;8.378;2024-03-08T00:11:37;3.00;99.90
35381;DHT22;21486;51.916;8.378;2024-03-08T00:14:02;3.00;99.90
35381;DHT22;21486;51.916;8.378;2024-03-08T00:16:32;3.00;99.90
35381;DHT22;21486;51.916;8.378;2024-03-08T00:18:58;3.00;99.90
35381;DHT22;21486;51.916;8.378;2024-03-08T00:21:23;3.00;99.90
35381;DHT22;21486;51.916;8.378;2024-03-08T00:23:49;3.00;99.90
35381;DHT22;21486;51.916;8.378;2024-03-08T00:26:15;3.00;99.90
35381;DHT22;21486;51.916;8.378;2024-03-08T00:28:40;3.00;99.90
35381;DHT22;21486;51.916;8.378;2024-03-08T00:31:06;3.00;99.90
35381;DHT22;21486;51.916;8.378;2024-03-08T00:33:32;3.00;99.90
35381;DHT22;21486;51.916;8.378;2024-03-08T00:35:57;3.00;99.90
35381;DHT22;21486;51.916;8.378;2024-03-08T00:38:23;2.90;99.90
35381;DHT22;21486;51.916;8.378;2024-03-08T00:40:49;2.90;99.90
35381;DHT22;21486;51.916;8.378;2024-03-08T00:43:14;2.90;99.90
35381;DHT22;21486;51.916;8.378;2024-03-08T00:45:41;2.80;99.90
35381;DHT22;21486;51.916;8.378;2024-03-08T00:48:08;2.80;99.90
35381;DHT22;21486;51.916;8.378;2024-03-08T00:50:34;2.80;99.90
35381;DHT22;21486;51.916;8.378;2024-03-08T00:52:59;2.70;99.90
35381;DHT22;21486;51.916;8.378;2024-03-08T00:55:25;2.70;99.90
35381;DHT22;21486;51.916;8.378;2024-03-08T00:57:51;2.80;99.90
35381;DHT22;21486;51.916;8.378;2024-03-08T01:00:19;2.80;99.90
35381;DHT22;21486;51.916;8.378;2024-03-08T01:02:46;2.80;99.90
35381;DHT22;21486;51.916;8.378;2024-03-08T01:05:12;2.80;99.90
35381;DHT22;21486;51.916;8.378;2024-03-08T01:07:38;2.80;99.90
35381;DHT22;21486;51.916;8.378;2024-03-08T01:10:04;2.70;99.90
35381;DHT22;21486;51.916;8.378;2024-03-08T01:12:34;2.80;99.90
35381;DHT22;21486;51.916;8.378;2024-03-08T01:15:00;2.70;99.90
35381;DHT22;21486;51.916;8.378;2024-03-08T01:17:25;2.70;99.90
35381;DHT22;21486;51.916;8.378;2024-03-08T01:19:52;2.70;99.90
35381;DHT22;21486;51.916;8.378;2024-03-08T01:22:18;2.70;99.90
35381;DHT22;21486;51.916;8.378;2024-03-08T01:24:44;2.60;99.90
35381;DHT22;21486;51.916;8.378;2024-03-08T01:27:09;2.60;99.90
35381;DHT22;21486;51.916;8.378;2024-03-08T01:29:35;2.70;99.90
35381;DHT22;21486;51.916;8.378;2024-03-08T01:33:02;2.70;99.90
35381;DHT22;21486;51.916;8.378;2024-03-08T01:35:28;2.70;99.90
35381;DHT22;21486;51.916;8.378;2024-03-08T01:37:54;2.70;99.90
35381;DHT22;21486;51.916;8.378;2024-03-08T01:40:19;2.70;99.90
35381;DHT22;21486;51.916;8.378;2024-03-08T01:42:45;2.70;99.90
35381;DHT22;21486;51.916;8.378;2024-03-08T01:45:11;2.70;99.90
35381;DHT22;21486;51.916;8.378;2024-03-08T01:47:37;2.70;99.90
35381;DHT22;21486;51.916;8.378;2024-03-08T01:50:03;2.70;99.90
35381;DHT22;21486;51.916;8.378;2024-03-08T01:52:30;2.70;99.90
35381;DHT22;21486;51.916;8.378;2024-03-08T01:54:59;2.70;99.90
35381;DHT22;21486;51.916;8.378;2024-03-08T01:57:26;2.60;99.90
35381;DHT22;21486;51.916;8.378;2024-03-08T01:59:52;2.60;99.90
35381;DHT22;21486;51.916;8.378;2024-03-08T02:02:20;2.60;99.90
35381;DHT22;21486;51.916;8.378;2024-03-08T02:04:47;2.50;99.90
35381;DHT22;21486;51.916;8.378;2024-03-08T02:07:12;2.60;99.90
35381;DHT22;21486;51.916;8.378;2024-03-08T02:09:38;2.60;99.90
35381;DHT22;21486;51.916;8.378;2024-03-08T02:12:05;2.60;99.90
35381;DHT22;21486;51.916;8.378;2024-03-08T02:14:30;2.70;99.90
35381;DHT22;21486;51.916;8.378;2024-03-08T02:17:00;2.60;99.90
35381;DHT22;21486;51.916;8.378;2024-03-08T02:19:26;2.70;99.90
35381;DHT22;21486;51.916;8.378;2024-03-08T02:21:51;2.60;99.90
35381;DHT22;21486;51.916;8.378;2024-03-08T02:24:17;2.60;99.90
35381;DHT22;21486;51.916;8.378;2024-03-08T02:26:42;2.60;99.90
35381;DHT22;21486;51.916;8.378;2024-03-08T02:29:08;2.50;99.90
35381;DHT22;21486;51.916;8.378;2024-03-08T02:31:34;2.60;99.90
35381;DHT22;21486;51.916;8.378;2024-03-08T02:33:59;2.50;99.90
35381;DHT22;21486;51.916;8.378;2024-03-08T02:36:25;2.50;99.90
35381;DHT22;21486;51.916;8.378;2024-03-08T02:38:50;2.50;99.90
35381;DHT22;21486;51.916;8.378;2024-03-08T02:41:16;2.50;99.90
35381;DHT22;21486;51.916;8.378;2024-03-08T02:43:41;2.50;99.90
35381;DHT22;21486;51.916;8.378;2024-03-08T02:46:07;2.50;99.90
35381;DHT22;21486;51.916;8.378;2024-03-08T02:48:33;2.40;99.90
35381;DHT22;21486;51.916;8.378;2024-03-08T02:50:59;2.30;99.90
35381;DHT22;21486;51.916;8.378;2024-03-08T02:53:24;2.30;99.90
35381;DHT22;21486;51.916;8.378;2024-03-08T02:55:50;2.30;99.90
35381;DHT22;21486;51.916;8.378;2024-03-08T02:58:15;2.20;99.90
35381;DHT22;21486;51.916;8.378;2024-03-08T03:00:41;2.20;99.90
35381;DHT22;21486;51.916;8.378;2024-03-08T03:03:07;2.20;99.90
35381;DHT22;21486;51.916;8.378;2024-03-08T03:05:32;2.10;99.90
35381;DHT22;21486;51.916;8.378;2024-03-08T03:07:59;2.10;99.90
35381;DHT22;21486;51.916;8.378;2024-03-08T03:10:25;2.00;99.90
35381;DHT22;21486;51.916;8.378;2024-03-08T03:12:51;2.10;99.90
35381;DHT22;21486;51.916;8.378;2024-03-08T03:15:17;2.10;99.90
35381;DHT22;21486;51.916;8.378;2024-03-08T03:17:50;2.00;99.90
35381;DHT22;21486;51.916;8.378;2024-03-08T03:20:19;1.90;99.90
35381;DHT22;21486;51.916;8.378;2024-03-08T03:22:58;2.00;99.90
35381;DHT22;21486;51.916;8.378;2024-03-08T03:25:26;1.90;99.90
35381;DHT22;21486;51.916;8.378;2024-03-08T03:27:54;1.90;99.90
35381;DHT22;21486;51.916;8.378;2024-03-08T03:30:22;1.90;99.90
35381;DHT22;21486;51.916;8.378;2024-03-08T03:32:51;1.90;99.90
35381;DHT22;21486;51.916;8.378;2024-03-08T03:35:17;2.00;99.90
35381;DHT22;21486;51.916;8.378;2024-03-08T03:37:43;2.00;99.90
35381;DHT22;21486;51.916;8.378;2024-03-08T03:40:16;2.00;99.90
35381;DHT22;21486;51.916;8.378;2024-03-08T03:42:44;2.10;99.90
35381;DHT22;21486;51.916;8.378;2024-03-08T03:45:10;2.00;99.90
35381;DHT22;21486;51.916;8.378;2024-03-08T03:47:36;2.00;99.90
35381;DHT22;21486;51.916;8.378;2024-03-08T03:50:04;2.00;99.90
35381;DHT22;21486;51.916;8.378;2024-03-08T03:52:30;2.00;99.90
35381;DHT22;21486;51.916;8.378;2024-03-08T03:54:55;2.10;99.90
35381;DHT22;21486;51.916;8.378;2024-03-08T03:57:22;2.00;99.90
35381;DHT22;21486;51.916;8.378;2024-03-08T03:59:48;2.00;99.90
35381;DHT22;21486;51.916;8.378;2024-03-08T04:02:13;2.00;99.90
35381;DHT22;21486;51.916;8.378;2024-03-08T04:04:40;2.00;99.90
35381;DHT22;21486;51.916;8.378;2024-03-08T04:07:05;2.10;99.90
35381;DHT22;21486;51.916;8.378;2024-03-08T04:09:31;2.10;99.90
35381;DHT22;21486;51.916;8.378;2024-03-08T04:11:57;2.10;99.90
35381;DHT22;21486;51.916;8.378;2024-03-08T04:14:23;2.10;99.90
35381;DHT22;21486;51.916;8.378;2024-03-08T04:16:48;2.00;99.90
35381;DHT22;21486;51.916;8.378;2024-03-08T04:19:14;2.00;99.90
35381;DHT22;21486;51.916;8.378;2024-03-08T04:21:39;1.90;99.90
35381;DHT22;21486;51.916;8.378;2024-03-08T04:24:05;2.00;99.90
35381;DHT22;21486;51.916;8.378;2024-03-08T04:26:31;1.90;99.90
35381;DHT22;21486;51.916;8.378;2024-03-08T04:28:57;1.90;99.90
35381;DHT22;21486;51.916;8.378;2024-03-08T04:31:22;2.00;99.90
35381;DHT22;21486;51.916;8.378;2024-03-08T04:33:48;2.00;99.90
35381;DHT22;21486;51.916;8.378;2024-03-08T04:36:13;1.90;99.90
35381;DHT22;21486;51.916;8.378;2024-03-08T04:38:40;1.80;99.90
35381;DHT22;21486;51.916;8.378;2024-03-08T04:41:06;1.80;99.90
35381;DHT22;21486;51.916;8.378;2024-03-08T04:43:32;1.80;99.90
35381;DHT22;21486;51.916;8.378;2024-03-08T04:45:57;1.90;99.90
35381;DHT22;21486;51.916;8.378;2024-03-08T04:48:23;1.90;99.90
35381;DHT22;21486;51.916;8.378;2024-03-08T04:50:52;1.80;99.90
35381;DHT22;21486;51.916;8.378;2024-03-08T04:53:19;1.80;99.90
35381;DHT22;21486;51.916;8.378;2024-03-08T04:55:44;1.70;99.90
35381;DHT22;21486;51.916;8.378;2024-03-08T04:58:10;1.70;99.90
35381;DHT22;21486;51.916;8.378;2024-03-08T05:00:36;1.70;99.90
35381;DHT22;21486;51.916;8.378;2024-03-08T05:03:01;1.60;99.90
35381;DHT22;21486;51.916;8.378;2024-03-08T05:05:26;1.60;99.90
35381;DHT22;21486;51.916;8.378;2024-03-08T05:07:54;1.60;99.90
35381;DHT22;21486;51.916;8.378;2024-03-08T05:10:19;1.60;99.90
35381;DHT22;21486;51.916;8.378;2024-03-08T05:12:45;1.50;99.90
35381;DHT22;21486;51.916;8.378;2024-03-08T05:15:10;1.50;99.90
35381;DHT22;21486;51.916;8.378;2024-03-08T05:17:36;1.50;99.90
35381;DHT22;21486;51.916;8.378;2024-03-08T05:20:02;1.50;99.90
35381;DHT22;21486;51.916;8.378;2024-03-08T05:22:27;1.50;99.90
35381;DHT22;21486;51.916;8.378;2024-03-08T05:24:53;1.50;99.90
35381;DHT22;21486;51.916;8.378;2024-03-08T05:27:18;1.50;99.90
35381;DHT22;21486;51.916;8.378;2024-03-08T05:29:44;1.50;99.90
35381;DHT22;21486;51.916;8.378;2024-03-08T05:32:10;1.40;99.90
35381;DHT22;21486;51.916;8.378;2024-03-08T05:34:35;1.40;99.90
35381;DHT22;21486;51.916;8.378;2024-03-08T05:37:01;1.30;99.90
35381;DHT22;21486;51.916;8.378;2024-03-08T05:39:27;1.40;99.90
35381;DHT22;21486;51.916;8.378;2024-03-08T05:41:52;1.40;99.90
35381;DHT22;21486;51.916;8.378;2024-03-08T05:44:20;1.40;99.90
35381;DHT22;21486;51.916;8.378;2024-03-08T05:46:45;1.40;99.90
35381;DHT22;21486;51.916;8.378;2024-03-08T05:49:14;1.40;99.90
35381;DHT22;21486;51.916;8.378;2024-03-08T05:51:40;1.40;99.90
35381;DHT22;21486;51.916;8.378;2024-03-08T05:54:11;1.50;99.90
35381;DHT22;21486;51.916;8.378;2024-03-08T05:56:37;1.40;99.90
35381;DHT22;21486;51.916;8.378;2024-03-08T05:59:03;1.40;99.90
35381;DHT22;21486;51.916;8.378;2024-03-08T06:01:29;1.50;99.90
35381;DHT22;21486;51.916;8.378;2024-03-08T06:03:55;1.50;99.90
35381;DHT22;21486;51.916;8.378;2024-03-08T06:06:23;1.60;99.90
35381;DHT22;21486;51.916;8.378;2024-03-08T06:08:49;1.70;99.90
35381;DHT22;21486;51.916;8.378;2024-03-08T06:11:15;1.70;99.90
35381;DHT22;21486;51.916;8.378;2024-03-08T06:13:43;1.70;99.90
35381;DHT22;21486;51.916;8.378;2024-03-08T06:16:09;1.60;99.90
35381;DHT22;21486;51.916;8.378;2024-03-08T06:18:34;1.70;99.90
35381;DHT22;21486;51.916;8.378;2024-03-08T06:21:06;1.70;99.90
35381;DHT22;21486;51.916;8.378;2024-03-08T06:23:33;1.70;99.90
35381;DHT22;21486;51.916;8.378;2024-03-08T06:25:58;1.70;99.90
35381;DHT22;21486;51.916;8.378;2024-03-08T06:28:24;1.70;99.90
35381;DHT22;21486;51.916;8.378;2024-03-08T06:30:49;1.80;99.90
35381;DHT22;21486;51.916;8.378;2024-03-08T06:33:17;1.80;99.90
35381;DHT22;21486;51.916;8.378;2024-03-08T06:35:42;1.80;99.90
35381;DHT22;21486;51.916;8.378;2024-03-08T06:38:08;1.90;99.90
35381;DHT22;21486;51.916;8.378;2024-03-08T06:40:33;1.90;99.90
35381;DHT22;21486;51.916;8.378;2024-03-08T06:42:59;1.90;99.90
35381;DHT22;21486;51.916;8.378;2024-03-08T06:45:24;2.00;99.90
35381;DHT22;21486;51.916;8.378;2024-03-08T06:47:51;1.90;99.90
35381;DHT22;21486;51.916;8.378;2024-03-08T06:50:17;2.00;99.90
35381;DHT22;21486;51.916;8.378;2024-03-08T06:52:43;2.10;99.90
35381;DHT22;21486;51.916;8.378;2024-03-08T06:55:10;2.10;99.90
35381;DHT22;21486;51.916;8.378;2024-03-08T06:57:41;2.10;99.90
35381;DHT22;21486;51.916;8.378;2024-03-08T07:00:09;2.10;99.90
35381;DHT22;21486;51.916;8.378;2024-03-08T07:02:37;2.10;99.90
35381;DHT22;21486;51.916;8.378;2024-03-08T07:05:05;2.20;99.90
35381;DHT22;21486;51.916;8.378;2024-03-08T07:07:31;2.30;99.90
35381;DHT22;21486;51.916;8.378;2024-03-08T07:09:57;2.30;99.90
35381;DHT22;21486;51.916;8.378;2024-03-08T07:12:22;2.40;99.90
35381;DHT22;21486;51.916;8.378;2024-03-08T07:14:49;2.40;99.90
35381;DHT22;21486;51.916;8.378;2024-03-08T07:17:14;2.50;99.90
35381;DHT22;21486;51.916;8.378;2024-03-08T07:19:39;2.50;99.90
35381;DHT22;21486;51.916;8.378;2024-03-08T07:22:05;2.50;99.90
35381;DHT22;21486;51.916;8.378;2024-03-08T07:24:34;2.60;99.90
35381;DHT22;21486;51.916;8.378;2024-03-08T07:27:23;2.60;99.90
35381;DHT22;21486;51.916;8.378;2024-03-08T07:29:48;2.70;99.90
35381;DHT22;21486;51.916;8.378;2024-03-08T07:32:14;2.70;99.90
35381;DHT22;21486;51.916;8.378;2024-03-08T07:34:47;2.80;99.90
35381;DHT22;21486;51.916;8.378;2024-03-08T07:37:13;2.80;99.90
35381;DHT22;21486;51.916;8.378;2024-03-08T07:39:39;2.90;99.90
35381;DHT22;21486;51.916;8.378;2024-03-08T07:42:05;2.90;99.90
35381;DHT22;21486;51.916;8.378;2024-03-08T07:44:30;3.10;99.90
35381;DHT22;21486;51.916;8.378;2024-03-08T07:46:57;3.10;99.90
35381;DHT22;21486;51.916;8.378;2024-03-08T07:49:24;3.10;99.90
35381;DHT22;21486;51.916;8.378;2024-03-08T07:51:49;3.20;99.90
35381;DHT22;21486;51.916;8.378;2024-03-08T07:54:15;3.20;99.90
35381;DHT22;21486;51.916;8.378;2024-03-08T07:56:40;3.30;99.90
35381;DHT22;21486;51.916;8.378;2024-03-08T07:59:07;3.40;99.90
35381;DHT22;21486;51.916;8.378;2024-03-08T08:01:33;3.40;99.90
35381;DHT22;21486;51.916;8.378;2024-03-08T08:04:01;3.50;99.90
35381;DHT22;21486;51.916;8.378;2024-03-08T08:06:27;3.60;99.90
35381;DHT22;21486;51.916;8.378;2024-03-08T08:08:53;3.50;99.90
35381;DHT22;21486;51.916;8.378;2024-03-08T08:11:19;3.50;99.90
35381;DHT22;21486;51.916;8.378;2024-03-08T08:13:45;3.60;99.90
35381;DHT22;21486;51.916;8.378;2024-03-08T08:16:11;3.70;99.90
35381;DHT22;21486;51.916;8.378;2024-03-08T08:18:38;3.80;99.90
35381;DHT22;21486;51.916;8.378;2024-03-08T08:21:05;4.00;99.90
35381;DHT22;21486;51.916;8.378;2024-03-08T08:23:32;4.20;99.90
35381;DHT22;21486;51.916;8.378;2024-03-08T08:25:57;4.20;99.90
35381;DHT22;21486;51.916;8.378;2024-03-08T08:28:23;4.30;99.90
35381;DHT22;21486;51.916;8.378;2024-03-08T08:30:50;4.50;99.90
35381;DHT22;21486;51.916;8.378;2024-03-08T08:33:16;4.60;99.90
35381;DHT22;21486;51.916;8.378;2024-03-08T08:35:41;4.60;99.90
35381;DHT22;21486;51.916;8.378;2024-03-08T08:38:08;4.70;99.90
35381;DHT22;21486;51.916;8.378;2024-03-08T08:40:34;4.80;99.90
35381;DHT22;21486;51.916;8.378;2024-03-08T08:43:01;5.00;99.90
35381;DHT22;21486;51.916;8.378;2024-03-08T08:45:30;5.00;99.90
35381;DHT22;21486;51.916;8.378;2024-03-08T08:47:56;5.10;99.90
35381;DHT22;21486;51.916;8.378;2024-03-08T08:50:21;5.10;99.90
35381;DHT22;21486;51.916;8.378;2024-03-08T08:52:50;5.20;99.90
35381;DHT22;21486;51.916;8.378;2024-03-08T08:55:16;5.40;99.90
35381;DHT22;21486;51.916;8.378;2024-03-08T08:57:46;5.50;99.90
35381;DHT22;21486;51.916;8.378;2024-03-08T09:00:13;5.60;99.90
35381;DHT22;21486;51.916;8.378;2024-03-08T09:02:41;5.80;99.90
35381;DHT22;21486;51.916;8.378;2024-03-08T09:05:07;5.80;99.90
35381;DHT22;21486;51.916;8.378;2024-03-08T09:07:33;5.90;99.90
35381;DHT22;21486;51.916;8.378;2024-03-08T09:09:59;6.20;99.90
35381;DHT22;21486;51.916;8.378;2024-03-08T09:12:25;6.80;99.90
35381;DHT22;21486;51.916;8.378;2024-03-08T09:14:51;7.40;99.90
35381;DHT22;21486;51.916;8.378;2024-03-08T09:17:16;7.30;99.90
35381;DHT22;21486;51.916;8.378;2024-03-08T09:19:48;7.40;99.90
35381;DHT22;21486;51.916;8.378;2024-03-08T09:22:14;8.00;98.90
35381;DHT22;21486;51.916;8.378;2024-03-08T09:24:39;8.60;99.90
35381;DHT22;21486;51.916;8.378;2024-03-08T09:27:05;9.00;98.40
35381;DHT22;21486;51.916;8.378;2024-03-08T09:29:31;9.30;96.30
35381;DHT22;21486;51.916;8.378;2024-03-08T09:31:57;9.40;94.10
35381;DHT22;21486;51.916;8.378;2024-03-08T09:34:22;9.50;85.20
35381;DHT22;21486;51.916;8.378;2024-03-08T09:36:48;9.40;88.00
35381;DHT22;21486;51.916;8.378;2024-03-08T09:39:14;9.60;87.10
35381;DHT22;21486;51.916;8.378;2024-03-08T09:41:45;9.60;86.20
35381;DHT22;21486;51.916;8.378;2024-03-08T09:44:14;9.60;82.80
35381;DHT22;21486;51.916;8.378;2024-03-08T09:46:40;9.90;87.60
35381;DHT22;21486;51.916;8.378;2024-03-08T09:49:06;9.90;91.30
35381;DHT22;21486;51.916;8.378;2024-03-08T09:51:33;10.10;90.30
35381;DHT22;21486;51.916;8.378;2024-03-08T09:54:00;10.00;74.90
35381;DHT22;21486;51.916;8.378;2024-03-08T09:56:26;10.10;74.00
35381;DHT22;21486;51.916;8.378;2024-03-08T09:58:53;9.90;75.20
35381;DHT22;21486;51.916;8.378;2024-03-08T10:01:53;9.70;75.60
35381;DHT22;21486;51.916;8.378;2024-03-08T10:04:22;10.00;76.30
35381;DHT22;21486;51.916;8.378;2024-03-08T10:06:47;10.30;74.10
35381;DHT22;21486;51.916;8.378;2024-03-08T10:09:14;10.10;74.20
35381;DHT22;21486;51.916;8.378;2024-03-08T10:11:43;10.50;73.30
35381;DHT22;21486;51.916;8.378;2024-03-08T10:14:11;10.90;71.60
35381;DHT22;21486;51.916;8.378;2024-03-08T10:16:38;10.50;69.50
35381;DHT22;21486;51.916;8.378;2024-03-08T10:19:04;10.90;68.70
35381;DHT22;21486;51.916;8.378;2024-03-08T10:21:32;10.60;69.60
35381;DHT22;21486;51.916;8.378;2024-03-08T10:23:58;10.60;70.10
35381;DHT22;21486;51.916;8.378;2024-03-08T10:26:24;11.30;69.20
35381;DHT22;21486;51.916;8.378;2024-03-08T10:28:52;11.50;68.70
35381;DHT22;21486;51.916;8.378;2024-03-08T10:31:20;12.00;65.40
35381;DHT22;21486;51.916;8.378;2024-03-08T10:33:46;11.80;66.20
35381;DHT22;21486;51.916;8.378;2024-03-08T10:36:12;11.30;66.50
35381;DHT22;21486;51.916;8.378;2024-03-08T10:38:40;11.30;67.30
35381;DHT22;21486;51.916;8.378;2024-03-08T10:41:06;11.30;67.20
35381;DHT22;21486;51.916;8.378;2024-03-08T10:44:02;11.70;66.40
35381;DHT22;21486;51.916;8.378;2024-03-08T10:49:01;11.40;67.10
35381;DHT22;21486;51.916;8.378;2024-03-08T10:51:30;11.70;64.70
35381;DHT22;21486;51.916;8.378;2024-03-08T10:53:57;11.90;63.90
35381;DHT22;21486;51.916;8.378;2024-03-08T10:56:25;11.40;65.30
35381;DHT22;21486;51.916;8.378;2024-03-08T10:58:54;11.20;65.10
35381;DHT22;21486;51.916;8.378;2024-03-08T11:01:20;11.10;65.60
35381;DHT22;21486;51.916;8.378;2024-03-08T11:03:47;11.10;67.30
35381;DHT22;21486;51.916;8.378;2024-03-08T11:06:30;11.90;65.10
35381;DHT22;21486;51.916;8.378;2024-03-08T11:08:57;11.40;63.90
35381;DHT22;21486;51.916;8.378;2024-03-08T11:11:25;11.40;64.20
35381;DHT22;21486;51.916;8.378;2024-03-08T11:13:56;11.00;65.20
35381;DHT22;21486;51.916;8.378;2024-03-08T11:16:43;11.00;65.60
35381;DHT22;21486;51.916;8.378;2024-03-08T11:21:36;10.70;67.50
35381;DHT22;21486;51.916;8.378;2024-03-08T11:24:11;11.30;64.80
35381;DHT22;21486;51.916;8.378;2024-03-08T11:26:39;11.50;63.20
35381;DHT22;21486;51.916;8.378;2024-03-08T11:29:33;11.40;62.80
35381;DHT22;21486;51.916;8.378;2024-03-08T11:32:17;11.00;61.90
35381;DHT22;21486;51.916;8.378;2024-03-08T11:34:48;11.00;63.70
35381;DHT22;21486;51.916;8.378;2024-03-08T11:37:18;10.60;63.70
35381;DHT22;21486;51.916;8.378;2024-03-08T11:39:52;10.90;64.00
35381;DHT22;21486;51.916;8.378;2024-03-08T11:42:19;11.50;63.40
35381;DHT22;21486;51.916;8.378;2024-03-08T11:44:45;11.30;64.20
35381;DHT22;21486;51.916;8.378;2024-03-08T11:47:11;11.70;61.90
35381;DHT22;21486;51.916;8.378;2024-03-08T11:49:40;11.60;60.70
35381;DHT22;21486;51.916;8.378;2024-03-08T11:52:14;11.70;61.30
35381;DHT22;21486;51.916;8.378;2024-03-08T11:54:51;11.30;63.40
35381;DHT22;21486;51.916;8.378;2024-03-08T11:57:22;11.10;63.60
35381;DHT22;21486;51.916;8.378;2024-03-08T11:59:55;11.10;62.80
35381;DHT22;21486;51.916;8.378;2024-03-08T12:02:22;11.40;62.40
35381;DHT22;21486;51.916;8.378;2024-03-08T12:04:56;11.10;62.80
35381;DHT22;21486;51.916;8.378;2024-03-08T12:07:23;11.10;64.20
35381;DHT22;21486;51.916;8.378;2024-03-08T12:10:16;11.40;62.60
35381;DHT22;21486;51.916;8.378;2024-03-08T12:12:47;11.50;63.20
35381;DHT22;21486;51.916;8.378;2024-03-08T12:15:16;11.50;61.80
35381;DHT22;21486;51.916;8.378;2024-03-08T12:17:43;11.30;64.20
35381;DHT22;21486;51.916;8.378;2024-03-08T12:22:43;11.60;63.30
35381;DHT22;21486;51.916;8.378;2024-03-08T12:25:11;11.70;63.40
35381;DHT22;21486;51.916;8.378;2024-03-08T12:27:38;11.80;62.80
35381;DHT22;21486;51.916;8.378;2024-03-08T12:30:20;11.70;61.40
35381;DHT22;21486;51.916;8.378;2024-03-08T12:32:48;11.10;62.00
35381;DHT22;21486;51.916;8.378;2024-03-08T12:35:14;10.90;62.80
35381;DHT22;21486;51.916;8.378;2024-03-08T12:37:40;10.60;63.70
35381;DHT22;21486;51.916;8.378;2024-03-08T12:40:08;10.40;64.90
35381;DHT22;21486;51.916;8.378;2024-03-08T12:42:34;10.30;65.40
35381;DHT22;21486;51.916;8.378;2024-03-08T12:45:00;10.30;66.10
35381;DHT22;21486;51.916;8.378;2024-03-08T12:47:26;10.20;65.40
35381;DHT22;21486;51.916;8.378;2024-03-08T12:49:54;10.00;65.70
35381;DHT22;21486;51.916;8.378;2024-03-08T12:52:20;10.00;66.90
35381;DHT22;21486;51.916;8.378;2024-03-08T12:54:45;10.00;68.00
35381;DHT22;21486;51.916;8.378;2024-03-08T12:57:12;10.10;69.80
35381;DHT22;21486;51.916;8.378;2024-03-08T12:59:38;10.20;69.40
35381;DHT22;21486;51.916;8.378;2024-03-08T13:02:04;10.50;68.70
35381;DHT22;21486;51.916;8.378;2024-03-08T13:04:31;10.70;67.00
35381;DHT22;21486;51.916;8.378;2024-03-08T13:06:56;10.80;66.20
35381;DHT22;21486;51.916;8.378;2024-03-08T13:09:22;11.00;65.00
35381;DHT22;21486;51.916;8.378;2024-03-08T13:11:47;11.00;63.70
35381;DHT22;21486;51.916;8.378;2024-03-08T13:14:13;10.90;64.00
35381;DHT22;21486;51.916;8.378;2024-03-08T13:16:38;11.10;63.10
35381;DHT22;21486;51.916;8.378;2024-03-08T13:19:04;11.10;63.70
35381;DHT22;21486;51.916;8.378;2024-03-08T13:21:30;11.20;63.50
35381;DHT22;21486;51.916;8.378;2024-03-08T13:23:57;10.90;63.30
35381;DHT22;21486;51.916;8.378;2024-03-08T13:26:24;11.00;63.80
35381;DHT22;21486;51.916;8.378;2024-03-08T13:28:51;11.10;63.80
35381;DHT22;21486;51.916;8.378;2024-03-08T13:31:20;11.40;62.20
35381;DHT22;21486;51.916;8.378;2024-03-08T13:33:45;11.30;62.60
35381;DHT22;21486;51.916;8.378;2024-03-08T13:36:12;11.30;62.20
35381;DHT22;21486;51.916;8.378;2024-03-08T13:38:42;11.40;62.90
35381;DHT22;21486;51.916;8.378;2024-03-08T13:41:09;11.70;60.60
35381;DHT22;21486;51.916;8.378;2024-03-08T13:43:34;11.30;61.20
35381;DHT22;21486;51.916;8.378;2024-03-08T13:46:02;11.30;62.10
35381;DHT22;21486;51.916;8.378;2024-03-08T13:48:28;11.20;63.00
35381;DHT22;21486;51.916;8.378;2024-03-08T13:50:53;11.30;62.90
35381;DHT22;21486;51.916;8.378;2024-03-08T13:53:20;11.20;63.20
35381;DHT22;21486;51.916;8.378;2024-03-08T13:55:46;11.00;63.70
35381;DHT22;21486;51.916;8.378;2024-03-08T13:58:11;10.60;64.60
35381;DHT22;21486;51.916;8.378;2024-03-08T14:00:39;10.40;65.90
35381;DHT22;21486;51.916;8.378;2024-03-08T14:03:06;10.30;66.10
35381;DHT22;21486;51.916;8.378;2024-03-08T14:05:33;10.10;65.70
35381;DHT22;21486;51.916;8.378;2024-03-08T14:08:01;10.00;66.80
35381;DHT22;21486;51.916;8.378;2024-03-08T14:10:29;9.90;68.30
35381;DHT22;21486;51.916;8.378;2024-03-08T14:12:58;9.90;68.50
35381;DHT22;21486;51.916;8.378;2024-03-08T14:15:25;9.90;68.70
35381;DHT22;21486;51.916;8.378;2024-03-08T14:17:54;9.90;68.90
35381;DHT22;21486;51.916;8.378;2024-03-08T14:20:20;10.00;69.00
35381;DHT22;21486;51.916;8.378;2024-03-08T14:22:53;10.10;68.70
35381;DHT22;21486;51.916;8.378;2024-03-08T14:25:20;10.00;69.40
35381;DHT22;21486;51.916;8.378;2024-03-08T14:27:52;9.90;69.60
35381;DHT22;21486;51.916;8.378;2024-03-08T14:30:27;9.80;69.60
35381;DHT22;21486;51.916;8.378;2024-03-08T14:33:07;9.80;69.50
35381;DHT22;21486;51.916;8.378;2024-03-08T14:35:34;9.80;69.90
35381;DHT22;21486;51.916;8.378;2024-03-08T14:38:00;9.80;71.10
35381;DHT22;21486;51.916;8.378;2024-03-08T14:40:26;9.90;70.90
35381;DHT22;21486;51.916;8.378;2024-03-08T14:42:51;9.80;71.80
35381;DHT22;21486;51.916;8.378;2024-03-08T14:45:17;9.80;71.40
35381;DHT22;21486;51.916;8.378;2024-03-08T14:47:46;9.80;69.50
35381;DHT22;21486;51.916;8.378;2024-03-08T14:50:16;9.70;71.30
35381;DHT22;21486;51.916;8.378;2024-03-08T14:52:42;9.70;72.20
35381;DHT22;21486;51.916;8.378;2024-03-08T14:55:08;9.70;72.30
35381;DHT22;21486;51.916;8.378;2024-03-08T14:57:35;9.80;72.70
35381;DHT22;21486;51.916;8.378;2024-03-08T15:00:00;9.80;73.00
35381;DHT22;21486;51.916;8.378;2024-03-08T15:02:31;9.80;72.70
35381;DHT22;21486;51.916;8.378;2024-03-08T15:05:02;9.70;72.60
35381;DHT22;21486;51.916;8.378;2024-03-08T15:07:34;9.80;74.00
35381;DHT22;21486;51.916;8.378;2024-03-08T15:10:00;9.70;74.00
35381;DHT22;21486;51.916;8.378;2024-03-08T15:12:25;9.70;73.40
35381;DHT22;21486;51.916;8.378;2024-03-08T15:14:52;9.80;74.40
35381;DHT22;21486;51.916;8.378;2024-03-08T15:17:18;9.90;73.90
35381;DHT22;21486;51.916;8.378;2024-03-08T15:19:47;9.80;73.70
35381;DHT22;21486;51.916;8.378;2024-03-08T15:22:13;9.80;73.90
35381;DHT22;21486;51.916;8.378;2024-03-08T15:24:38;9.80;72.90
35381;DHT22;21486;51.916;8.378;2024-03-08T15:27:04;9.70;74.00
35381;DHT22;21486;51.916;8.378;2024-03-08T15:29:30;9.70;74.50
35381;DHT22;21486;51.916;8.378;2024-03-08T15:31:57;9.70;75.20
35381;DHT22;21486;51.916;8.378;2024-03-08T15:34:23;9.70;75.70
35381;DHT22;21486;51.916;8.378;2024-03-08T15:36:50;9.80;75.80
35381;DHT22;21486;51.916;8.378;2024-03-08T15:39:17;9.70;75.30
35381;DHT22;21486;51.916;8.378;2024-03-08T15:41:46;9.70;75.80
35381;DHT22;21486;51.916;8.378;2024-03-08T15:44:11;9.80;74.90
35381;DHT22;21486;51.916;8.378;2024-03-08T15:46:39;9.70;75.40
35381;DHT22;21486;51.916;8.378;2024-03-08T15:49:05;9.70;75.30
35381;DHT22;21486;51.916;8.378;2024-03-08T15:51:32;9.70;75.90